createdAt,value
2019-03-24T00:00:28.216Z,27.93
2019-03-24T00:02:59.485Z,27.57
2019-03-24T00:05:30.763Z,32.90
2019-03-24T00:08:01.989Z,29.00
2019-03-24T00:10:33.231Z,29.77
2019-03-24T00:13:04.549Z,26.80
2019-03-24T00:15:35.824Z,22.90
2019-03-24T00:18:07.153Z,25.53
2019-03-24T00:20:38.389Z,28.13
2019-03-24T00:23:10.028Z,27.30
2019-03-24T00:25:41.296Z,27.30
2019-03-24T00:28:12.573Z,34.33
2019-03-24T00:30:43.918Z,22.80
2019-03-24T00:33:15.223Z,28.97
2019-03-24T00:35:47.426Z,26.30
2019-03-24T00:38:19.942Z,27.70
2019-03-24T00:40:51.190Z,22.07
2019-03-24T00:43:22.495Z,22.00
2019-03-24T00:45:53.738Z,25.20
2019-03-24T00:48:25.181Z,22.93
2019-03-24T00:50:56.423Z,25.83
2019-03-24T00:53:27.760Z,22.53
2019-03-24T00:55:58.995Z,22.93
2019-03-24T00:58:30.293Z,26.13
2019-03-24T01:01:01.884Z,26.27
2019-03-24T01:03:33.190Z,24.83
2019-03-24T01:06:04.527Z,27.50
2019-03-24T01:08:35.881Z,21.53
2019-03-24T01:11:07.133Z,27.10
2019-03-24T01:13:38.359Z,25.87
2019-03-24T01:16:09.597Z,25.33
2019-03-24T01:18:40.865Z,24.67
2019-03-24T01:21:12.479Z,24.27
2019-03-24T01:23:43.743Z,24.67
2019-03-24T01:26:14.982Z,22.37
2019-03-24T01:28:47.877Z,24.00
2019-03-24T01:31:19.205Z,23.13
2019-03-24T01:33:50.455Z,24.20
2019-03-24T01:36:21.678Z,23.67
2019-03-24T01:38:52.963Z,24.00
2019-03-24T01:41:24.203Z,22.70
2019-03-24T01:43:55.385Z,25.53
2019-03-24T01:46:26.609Z,28.70
2019-03-24T01:48:57.965Z,26.40
2019-03-24T01:51:29.231Z,30.67
2019-03-24T01:54:00.427Z,28.43
2019-03-24T01:56:31.738Z,27.03
2019-03-24T01:59:02.953Z,32.03
2019-03-24T02:01:34.181Z,26.37
2019-03-24T02:04:05.411Z,28.17
2019-03-24T02:06:38.580Z,24.03
2019-03-24T02:09:11.055Z,26.80
2019-03-24T02:11:42.280Z,25.27
2019-03-24T02:14:13.507Z,26.10
2019-03-24T02:16:44.757Z,27.77
2019-03-24T02:19:16.164Z,23.43
2019-03-24T02:21:47.529Z,25.50
2019-03-24T02:24:20.580Z,23.50
2019-03-24T02:26:51.783Z,28.40
2019-03-24T02:29:23.000Z,27.57
2019-03-24T02:31:54.317Z,29.63
2019-03-24T02:34:25.533Z,29.47
2019-03-24T02:36:56.837Z,24.13
2019-03-24T02:39:28.118Z,24.80
2019-03-24T02:41:59.498Z,20.53
2019-03-24T02:44:30.860Z,28.70
2019-03-24T02:47:02.083Z,23.67
2019-03-24T02:49:33.308Z,28.87
2019-03-24T02:52:04.565Z,25.57
2019-03-24T02:54:35.851Z,27.57
2019-03-24T02:57:09.814Z,26.63
2019-03-24T02:59:41.063Z,27.90
2019-03-24T03:02:12.285Z,26.33
2019-03-24T03:04:43.557Z,27.63
2019-03-24T03:07:14.784Z,30.13
2019-03-24T03:09:46.151Z,27.33
2019-03-24T03:12:17.397Z,29.77
2019-03-24T03:14:48.638Z,28.53
2019-03-24T03:17:19.892Z,29.93
2019-03-24T03:19:53.602Z,32.10
2019-03-24T03:22:24.164Z,30.77
2019-03-24T03:24:56.803Z,36.47
2019-03-24T03:27:28.024Z,33.00
2019-03-24T03:29:59.483Z,30.63
2019-03-24T03:32:30.844Z,30.10
2019-03-24T03:35:02.108Z,28.80
2019-03-24T03:37:33.507Z,23.43
2019-03-24T03:40:05.474Z,26.53
2019-03-24T03:42:37.163Z,24.53
2019-03-24T03:45:09.967Z,24.87
2019-03-24T03:47:41.297Z,29.50
2019-03-24T03:50:13.463Z,23.07
2019-03-24T03:52:44.688Z,25.17
2019-03-24T03:55:16.036Z,26.63
2019-03-24T03:57:47.305Z,22.53
2019-03-24T04:00:22.088Z,23.87
2019-03-24T04:02:53.349Z,25.13
2019-03-24T04:05:24.629Z,24.93
2019-03-24T04:07:55.962Z,24.30
2019-03-24T04:10:27.257Z,23.73
2019-03-24T04:12:58.576Z,29.57
2019-03-24T04:15:29.838Z,27.07
2019-03-24T04:18:01.151Z,24.07
2019-03-24T04:20:32.354Z,24.33
2019-03-24T04:23:03.624Z,25.33
2019-03-24T04:25:34.852Z,24.27
2019-03-24T04:28:06.193Z,27.87
2019-03-24T04:30:37.422Z,27.90
2019-03-24T04:33:08.648Z,25.53
2019-03-24T04:35:39.995Z,32.23
2019-03-24T04:38:11.396Z,26.70
2019-03-24T04:40:42.631Z,28.77
2019-03-24T04:43:13.855Z,30.43
2019-03-24T04:45:45.059Z,31.20
2019-03-24T04:48:16.366Z,28.03
2019-03-24T04:50:47.602Z,29.10
2019-03-24T04:53:20.716Z,33.50
2019-03-24T04:55:51.764Z,31.93
2019-03-24T04:58:23.027Z,32.20
2019-03-24T05:00:54.241Z,27.97
2019-03-24T05:03:25.544Z,31.33
2019-03-24T05:06:00.060Z,34.43
2019-03-24T05:08:31.785Z,50.40
2019-03-24T05:11:03.017Z,46.50
2019-03-24T05:13:34.457Z,40.13
2019-03-24T05:16:05.701Z,40.97
2019-03-24T05:18:37.079Z,35.00
2019-03-24T05:21:09.413Z,40.67
2019-03-24T05:23:40.657Z,35.87
2019-03-24T05:26:11.881Z,39.90
2019-03-24T05:28:43.125Z,43.30
2019-03-24T05:31:14.374Z,50.80
2019-03-24T05:33:45.642Z,50.30
2019-03-24T05:36:16.841Z,38.47
2019-03-24T05:38:48.119Z,34.17
2019-03-24T05:41:19.387Z,32.50
2019-03-24T05:43:50.666Z,29.17
2019-03-24T05:46:21.910Z,26.80
2019-03-24T05:48:53.170Z,28.43
2019-03-24T05:51:24.424Z,27.00
2019-03-24T05:53:55.690Z,27.00
2019-03-24T05:56:26.925Z,32.40
2019-03-24T05:58:58.211Z,24.37
2019-03-24T06:01:29.456Z,29.73
2019-03-24T06:04:00.842Z,22.87
2019-03-24T06:06:32.047Z,29.13
2019-03-24T06:09:04.887Z,29.67
2019-03-24T06:11:36.337Z,34.43
2019-03-24T06:14:09.821Z,32.07
2019-03-24T06:16:41.164Z,30.03
2019-03-24T06:19:12.493Z,34.40
2019-03-24T06:21:43.774Z,32.37
2019-03-24T06:24:15.005Z,33.77
2019-03-24T06:26:46.347Z,38.40
2019-03-24T06:29:17.571Z,37.53
2019-03-24T06:31:49.943Z,42.03
2019-03-24T06:34:21.197Z,45.37
2019-03-24T06:36:52.442Z,45.53
2019-03-24T06:39:23.687Z,49.70
2019-03-24T06:41:54.905Z,44.03
2019-03-24T06:44:26.271Z,38.23
2019-03-24T06:46:57.611Z,39.00
2019-03-24T06:49:28.831Z,35.17
2019-03-24T06:52:00.089Z,33.10
2019-03-24T06:54:31.361Z,25.33
2019-03-24T06:57:02.567Z,20.67
2019-03-24T06:59:33.872Z,21.83
2019-03-24T07:02:05.160Z,21.90
2019-03-24T07:04:36.450Z,22.27
2019-03-24T07:07:07.680Z,21.53
2019-03-24T07:09:39.203Z,19.67
2019-03-24T07:12:12.208Z,18.83
2019-03-24T07:14:43.479Z,20.47
2019-03-24T07:17:14.727Z,18.63
2019-03-24T07:19:48.172Z,20.90
2019-03-24T07:22:19.701Z,19.00
2019-03-24T07:24:51.133Z,21.40
2019-03-24T07:27:22.464Z,19.23
2019-03-24T07:29:53.717Z,20.20
2019-03-24T07:32:24.945Z,20.87
2019-03-24T07:34:56.604Z,22.87
2019-03-24T07:37:27.965Z,23.70
2019-03-24T07:40:00.491Z,22.43
2019-03-24T07:42:31.728Z,21.67
2019-03-24T07:45:03.822Z,24.37
2019-03-24T07:47:35.069Z,22.27
2019-03-24T07:50:07.585Z,24.20
2019-03-24T07:52:40.121Z,21.20
2019-03-24T07:55:11.571Z,22.10
2019-03-24T07:57:42.837Z,23.23
2019-03-24T08:00:16.255Z,24.00
2019-03-24T08:02:53.791Z,24.23
2019-03-24T08:05:25.042Z,25.23
2019-03-24T08:07:56.383Z,24.47
2019-03-24T08:10:28.807Z,23.47
2019-03-24T08:13:00.140Z,21.17
2019-03-24T08:15:31.495Z,22.00
2019-03-24T08:18:02.749Z,23.37
2019-03-24T08:20:33.976Z,24.37
2019-03-24T08:23:05.559Z,25.30
2019-03-24T08:25:36.995Z,26.20
2019-03-24T08:28:08.240Z,25.20
2019-03-24T08:30:40.719Z,25.63
2019-03-24T08:33:11.922Z,23.47
2019-03-24T08:35:43.331Z,25.20
2019-03-24T08:38:16.025Z,24.40
2019-03-24T08:40:48.059Z,25.10
2019-03-24T08:43:19.435Z,23.23
2019-03-24T08:45:50.675Z,22.57
2019-03-24T08:48:22.943Z,27.13
2019-03-24T08:50:54.238Z,22.73
2019-03-24T08:53:26.237Z,24.27
2019-03-24T08:56:02.573Z,24.57
2019-03-24T08:58:34.443Z,27.80
2019-03-24T09:01:07.418Z,25.40
2019-03-24T09:03:38.819Z,23.43
2019-03-24T09:06:10.172Z,25.63
2019-03-24T09:08:41.394Z,25.07
2019-03-24T09:11:13.854Z,28.07
2019-03-24T09:13:45.110Z,26.80
2019-03-24T09:16:16.428Z,34.00
2019-03-24T09:18:52.982Z,27.97
2019-03-24T09:21:21.000Z,28.77
2019-03-24T09:23:52.460Z,32.63
2019-03-24T09:26:23.760Z,26.70
2019-03-24T09:28:55.028Z,33.50
2019-03-24T09:31:26.469Z,30.10
2019-03-24T09:33:57.789Z,31.40
2019-03-24T09:36:29.917Z,29.47
2019-03-24T09:39:01.190Z,33.30
2019-03-24T09:41:32.485Z,33.87
2019-03-24T09:44:03.767Z,32.30
2019-03-24T09:46:35.676Z,34.90
2019-03-24T09:49:08.613Z,34.27
